createdAt,value
2023-04-11T00:00:02.467Z,0
2023-04-11T00:05:03.621Z,0
2023-04-11T00:10:02.985Z,0
2023-04-11T00:15:02.761Z,0
2023-04-11T00:20:02.488Z,0
2023-04-11T00:25:03.260Z,0
2023-04-11T00:30:03.000Z,0
2023-04-11T00:35:02.645Z,0
2023-04-11T00:40:02.372Z,0
2023-04-11T00:45:03.252Z,0
2023-04-11T00:50:03.065Z,0
2023-04-11T00:55:03.557Z,0
2023-04-11T01:00:02.750Z,0
2023-04-11T01:05:03.356Z,0
2023-04-11T01:10:03.275Z,0
2023-04-11T01:15:02.563Z,0
2023-04-11T01:20:03.336Z,0
2023-04-11T01:25:02.952Z,0
2023-04-11T01:30:03.009Z,0
2023-04-11T01:35:02.840Z,0
2023-04-11T01:40:02.854Z,0
2023-04-11T01:45:02.983Z,0
2023-04-11T01:50:02.797Z,0
2023-04-11T01:55:03.667Z,0
2023-04-11T02:00:03.446Z,0
2023-04-11T02:05:03.146Z,0
2023-04-11T02:10:03.218Z,0
2023-04-11T02:15:02.868Z,0
2023-04-11T02:20:03.019Z,0
2023-04-11T02:25:02.769Z,0
2023-04-11T02:30:02.456Z,0
2023-04-11T02:35:03.227Z,0
2023-04-11T02:40:02.958Z,0
2023-04-11T02:45:02.720Z,0
2023-04-11T02:50:02.456Z,0
2023-04-11T02:55:04.419Z,0
2023-04-11T03:00:02.409Z,0
2023-04-11T03:05:03.140Z,0
2023-04-11T03:10:03.247Z,0
2023-04-11T03:15:02.936Z,0
2023-04-11T03:20:03.210Z,0
2023-04-11T03:25:02.838Z,0
2023-04-11T03:30:02.643Z,0
2023-04-11T03:35:03.354Z,0
2023-04-11T03:40:03.098Z,0
2023-04-11T03:45:02.953Z,0
2023-04-11T03:50:02.601Z,0
2023-04-11T03:55:03.868Z,0
2023-04-11T04:00:03.113Z,0
2023-04-11T04:05:02.895Z,0
2023-04-11T04:10:02.637Z,0
2023-04-11T04:15:02.630Z,0
2023-04-11T04:20:03.307Z,5
2023-04-11T04:25:03.052Z,8.33
2023-04-11T04:30:04.886Z,13.33
2023-04-11T04:35:02.662Z,25
2023-04-11T04:40:03.367Z,30
2023-04-11T04:45:03.165Z,40
2023-04-11T04:50:02.918Z,38.33
2023-04-11T04:55:02.995Z,80
2023-04-11T05:00:03.437Z,126.67
2023-04-11T05:05:03.296Z,138.33
2023-04-11T05:10:03.028Z,148.33
2023-04-11T05:15:02.820Z,306.67
2023-04-11T05:20:02.471Z,520
2023-04-11T05:25:02.492Z,1008.33
2023-04-11T05:30:03.193Z,1051.67
2023-04-11T05:35:02.863Z,1040
2023-04-11T05:40:02.654Z,1425
2023-04-11T05:45:02.705Z,1483.33
2023-04-11T05:50:02.442Z,1208.33
2023-04-11T05:55:03.663Z,921.67
2023-04-11T06:00:03.310Z,965
2023-04-11T06:05:02.564Z,826.67
2023-04-11T06:10:03.601Z,2078.33
2023-04-11T06:15:02.971Z,1783.33
2023-04-11T06:20:06.325Z,2048.33
2023-04-11T06:25:03.189Z,2411.67
2023-04-11T06:30:02.932Z,2426.67
2023-04-11T06:35:02.576Z,1740
2023-04-11T06:40:02.474Z,1455
2023-04-11T06:45:03.306Z,2130
2023-04-11T06:50:02.912Z,2638.33
2023-04-11T06:55:03.305Z,3345
2023-04-11T07:00:02.815Z,2383.33
2023-04-11T07:05:02.849Z,1678.33
2023-04-11T07:10:02.624Z,1620
2023-04-11T07:15:03.309Z,2173.33
2023-04-11T07:20:03.167Z,2058.33
2023-04-11T07:25:02.977Z,3810
2023-04-11T07:30:02.924Z,4451.67
2023-04-11T07:35:02.593Z,3651.67
2023-04-11T07:40:02.509Z,2918.33
2023-04-11T07:45:02.440Z,4018.33
2023-04-11T07:50:02.535Z,4245
2023-04-11T07:55:04.231Z,2408.33
2023-04-11T08:00:02.974Z,3366.67
2023-04-11T08:05:03.405Z,3661.67
2023-04-11T08:10:02.806Z,8170
2023-04-11T08:15:02.908Z,5638.33
2023-04-11T08:20:03.008Z,5686.67
2023-04-11T08:25:02.489Z,6351.67
2023-04-11T08:30:03.252Z,6118.33
2023-04-11T08:35:03.627Z,11176.67
2023-04-11T08:40:03.121Z,32870
2023-04-11T08:45:03.108Z,68067.42
2023-04-11T08:50:02.658Z,30526.67
2023-04-11T08:55:03.324Z,28603.33
2023-04-11T09:00:03.079Z,5871.67
2023-04-11T09:05:03.086Z,7138.33
2023-04-11T09:10:02.705Z,43963.33
2023-04-11T09:15:02.507Z,41190
2023-04-11T09:20:03.281Z,43533.33
2023-04-11T09:25:03.014Z,10726.67
2023-04-11T09:30:03.036Z,32806.67
2023-04-11T09:35:02.773Z,8150
2023-04-11T09:40:04.591Z,85148.52
2023-04-11T09:45:02.600Z,11580
2023-04-11T09:50:03.310Z,86021.8
2023-04-11T09:55:03.543Z,11063.33
2023-04-11T10:00:03.230Z,4585
2023-04-11T10:05:03.002Z,6278.33
2023-04-11T10:10:02.801Z,5878.33
2023-04-11T10:15:02.818Z,2830
2023-04-11T10:20:02.742Z,2168.33
2023-04-11T10:25:02.463Z,1735
2023-04-11T10:30:03.294Z,1670
2023-04-11T10:35:02.965Z,1595
2023-04-11T10:40:02.874Z,6360
2023-04-11T10:45:02.947Z,34760
2023-04-11T10:50:02.709Z,33690
2023-04-11T10:55:03.147Z,12556.67
2023-04-11T11:05:03.250Z,105172.89
2023-04-11T11:10:02.765Z,104757.81
2023-04-11T11:15:02.851Z,104308.59
2023-04-11T11:20:02.560Z,103800.08
2023-04-11T11:25:03.271Z,100051.8
2023-04-11T11:30:03.331Z,106590.62
2023-04-11T11:35:02.823Z,110240.08
2023-04-11T11:40:02.680Z,117758.2
2023-04-11T11:45:02.566Z,117758.2
2023-04-11T11:50:02.766Z,9261.67
2023-04-11T11:55:04.085Z,117758.2
2023-04-11T12:00:02.947Z,11255
2023-04-11T12:05:02.946Z,36363.33
2023-04-11T12:10:02.452Z,10606.67
2023-04-11T12:15:03.432Z,30876.67
2023-04-11T12:20:03.154Z,117758.2
2023-04-11T12:25:02.844Z,11953.33
2023-04-11T12:30:03.104Z,117758.2
2023-04-11T12:35:02.593Z,108204.22
2023-04-11T12:40:02.398Z,7433.33
2023-04-11T12:45:03.141Z,89302.89
2023-04-11T12:50:02.915Z,7311.67
2023-04-11T12:55:03.420Z,46520
2023-04-11T13:00:03.427Z,70103.28
2023-04-11T13:05:03.512Z,73564.06
2023-04-11T13:10:03.028Z,72335
2023-04-11T13:15:02.901Z,72667.42
2023-04-11T13:20:03.143Z,85418.05
2023-04-11T13:25:02.723Z,80915.08
2023-04-11T13:30:02.595Z,8390
2023-04-11T13:35:03.390Z,5075
2023-04-11T13:40:03.243Z,6495
2023-04-11T13:45:03.228Z,9691.67
2023-04-11T13:50:03.259Z,12236.67
2023-04-11T13:55:03.514Z,7363.33
2023-04-11T14:00:02.848Z,27306.25
2023-04-11T14:05:02.597Z,9736.67
2023-04-11T14:10:02.555Z,9873.33
2023-04-11T14:15:03.325Z,9263.33
2023-04-11T14:20:02.390Z,35640
2023-04-11T14:25:03.167Z,11725
2023-04-11T14:30:02.921Z,6246.67
2023-04-11T14:35:02.877Z,33076.67
2023-04-11T14:40:02.387Z,31446.67
2023-04-11T14:45:03.238Z,35430
2023-04-11T14:50:02.958Z,36186.67
2023-04-11T14:55:03.074Z,32166.67
2023-04-11T15:00:02.456Z,34763.33
2023-04-11T15:05:02.487Z,38623.33
2023-04-11T15:10:03.213Z,6126.67
2023-04-11T15:15:02.951Z,9955
2023-04-11T15:20:02.724Z,31370
2023-04-11T15:25:02.739Z,3981.67
2023-04-11T15:30:02.484Z,8660
2023-04-11T15:35:03.093Z,11506.67
2023-04-11T15:40:02.909Z,6668.33
2023-04-11T15:45:02.814Z,6548.33
2023-04-11T15:50:02.512Z,8815
2023-04-11T15:55:03.737Z,4518.33
2023-04-11T16:00:03.116Z,5308.33
2023-04-11T16:05:03.282Z,8996.67
2023-04-11T16:10:03.131Z,8151.67
2023-04-11T16:15:02.659Z,6865
2023-04-11T16:20:03.352Z,3483.33
2023-04-11T16:25:03.352Z,3450
2023-04-11T16:30:03.387Z,4853.33
2023-04-11T16:35:02.770Z,4136.67
2023-04-11T16:40:03.022Z,3595
2023-04-11T16:45:02.481Z,3993.33
2023-04-11T16:50:03.510Z,2235
2023-04-11T16:55:03.394Z,2111.67
2023-04-11T17:00:02.789Z,2446.67
2023-04-11T17:05:02.515Z,2173.33
2023-04-11T17:10:02.585Z,1778.33
2023-04-11T17:15:03.405Z,1441.67
2023-04-11T17:20:03.076Z,1248.33
2023-04-11T17:25:02.762Z,1010
2023-04-11T17:30:02.573Z,836.67
2023-04-11T17:35:03.300Z,723.33
2023-04-11T17:40:02.613Z,543.33
2023-04-11T17:45:17.427Z,416.67
2023-04-11T17:50:02.824Z,323.33
2023-04-11T17:55:03.808Z,246.67
2023-04-11T18:00:03.167Z,158.33
2023-04-11T18:05:22.841Z,93.33
2023-04-11T18:10:03.214Z,51.67
2023-04-11T18:15:02.960Z,28.33
2023-04-11T18:20:03.034Z,10
2023-04-11T18:25:02.953Z,0.45
2023-04-11T18:30:02.794Z,0
2023-04-11T18:35:02.865Z,0
2023-04-11T18:40:02.384Z,0
2023-04-11T18:45:03.688Z,0
2023-04-11T18:50:03.025Z,0
2023-04-11T18:55:03.548Z,0
2023-04-11T19:00:05.852Z,0
2023-04-11T19:05:03.549Z,0
2023-04-11T19:10:03.300Z,0
2023-04-11T19:15:03.293Z,0
2023-04-11T19:20:03.032Z,0
2023-04-11T19:25:02.682Z,0
2023-04-11T19:30:03.420Z,0
2023-04-11T19:35:03.326Z,0
2023-04-11T19:40:03.029Z,0
2023-04-11T19:45:02.932Z,0
2023-04-11T19:50:02.533Z,0
2023-04-11T19:55:04.218Z,0
2023-04-11T20:00:03.026Z,0
2023-04-11T20:05:02.939Z,0
2023-04-11T20:10:02.605Z,0
2023-04-11T20:15:03.356Z,0
2023-04-11T20:20:03.519Z,0
2023-04-11T20:25:02.764Z,0
2023-04-11T20:30:02.651Z,0
2023-04-11T20:35:02.723Z,0
2023-04-11T20:40:03.440Z,0
2023-04-11T20:45:03.366Z,0
2023-04-11T20:50:02.946Z,0
2023-04-11T20:55:02.867Z,0
2023-04-11T21:00:03.600Z,0
2023-04-11T21:05:03.160Z,0
2023-04-11T21:10:02.903Z,0
2023-04-11T21:15:02.801Z,0
2023-04-11T21:20:02.655Z,0
2023-04-11T21:25:03.428Z,0
2023-04-11T21:30:02.608Z,0
2023-04-11T21:35:03.337Z,0
2023-04-11T21:40:03.095Z,0
2023-04-11T21:45:02.907Z,0
2023-04-11T21:50:02.610Z,0
2023-04-11T21:55:08.933Z,0
2023-04-11T22:00:02.846Z,0
2023-04-11T22:05:08.647Z,0
2023-04-11T22:10:02.681Z,0
2023-04-11T22:15:03.324Z,0
2023-04-11T22:20:03.219Z,0
2023-04-11T22:25:02.919Z,0
2023-04-11T22:30:02.915Z,0
2023-04-11T22:35:02.696Z,0
2023-04-11T22:40:02.716Z,0
2023-04-11T22:45:02.721Z,0
2023-04-11T22:50:02.508Z,0
2023-04-11T22:55:04.470Z,0
2023-04-11T23:00:03.312Z,0
2023-04-11T23:05:03.197Z,0
2023-04-11T23:10:02.697Z,0
2023-04-11T23:15:02.762Z,0
2023-04-11T23:20:02.524Z,0
2023-04-11T23:25:03.327Z,0
2023-04-11T23:30:03.043Z,0
2023-04-11T23:35:02.769Z,0
2023-04-11T23:40:02.719Z,0
2023-04-11T23:45:03.301Z,0
2023-04-11T23:50:02.953Z,0
2023-04-11T23:55:03.562Z,0
